Greeley, Kansas
Current Conditions -  °F | °C
As of 6:53 PM on Tuesday 21 Oct 2014 (Local Time) from KIXD Reporting Station
Clear Clear  
Wind Chill: 65°   Ceiling: Unl
Heat Index: 65°   Visibility: 10mi
Dew Point: 45°   Wind: 5mph
Humidity: 48%   Direction: 100°E
Pressure: 30.07"   Gusts: NA
Location:  38.37°N, 95.13°W
Report Text: KIXD 212353Z 10004KT 10SM CLR 18/07 A3007 RMK AO2 SLP182 T01830072 10233 20183 55003
Loading
Personal Weather Stations






























Interactive Weather Map
Tropical Storm Tracking
New forecast layout! Learn more

10-Day Weather Forecast

Advertisements
Track Severe Weather on mobile